sensor_id;sensor_type;location;lat;lon;timestamp;pressure;altitude;pressure_sealevel;temperature;humidity
24962;BME280;12992;50.884;13.668;2022-12-26T00:00:53;96999.84;;;10.90;100.00
24962;BME280;12992;50.884;13.668;2022-12-26T00:03:18;96989.22;;;10.94;100.00
24962;BME280;12992;50.884;13.668;2022-12-26T00:05:44;96986.00;;;10.97;100.00
24962;BME280;12992;50.884;13.668;2022-12-26T00:08:09;96987.91;;;10.96;100.00
24962;BME280;12992;50.884;13.668;2022-12-26T00:10:34;96982.41;;;10.91;100.00
24962;BME280;12992;50.884;13.668;2022-12-26T00:13:00;96976.97;;;10.91;100.00
24962;BME280;12992;50.884;13.668;2022-12-26T00:15:25;96964.41;;;10.85;100.00
24962;BME280;12992;50.884;13.668;2022-12-26T00:17:50;96956.78;;;10.82;100.00
24962;BME280;12992;50.884;13.668;2022-12-26T00:20:16;96948.06;;;10.80;100.00
24962;BME280;12992;50.884;13.668;2022-12-26T00:22:41;96962.25;;;10.87;100.00
24962;BME280;12992;50.884;13.668;2022-12-26T00:25:06;96958.72;;;10.92;100.00
24962;BME280;12992;50.884;13.668;2022-12-26T00:27:32;96954.63;;;10.94;100.00
24962;BME280;12992;50.884;13.668;2022-12-26T00:29:57;96960.06;;;10.94;100.00
24962;BME280;12992;50.884;13.668;2022-12-26T00:32:22;96957.94;;;11.01;100.00
24962;BME280;12992;50.884;13.668;2022-12-26T00:34:48;96950.28;;;10.98;100.00
24962;BME280;12992;50.884;13.668;2022-12-26T00:37:13;96952.47;;;11.01;100.00
24962;BME280;12992;50.884;13.668;2022-12-26T00:39:38;96931.22;;;11.03;100.00
24962;BME280;12992;50.884;13.668;2022-12-26T00:42:04;96948.38;;;11.04;100.00
24962;BME280;12992;50.884;13.668;2022-12-26T00:44:29;96953.59;;;11.11;100.00
24962;BME280;12992;50.884;13.668;2022-12-26T00:46:54;96969.44;;;11.14;100.00
24962;BME280;12992;50.884;13.668;2022-12-26T00:49:20;96960.97;;;11.15;100.00
24962;BME280;12992;50.884;13.668;2022-12-26T00:51:45;96956.03;;;11.12;100.00
24962;BME280;12992;50.884;13.668;2022-12-26T00:54:10;96944.59;;;11.10;100.00
24962;BME280;12992;50.884;13.668;2022-12-26T00:56:36;96963.72;;;11.15;100.00
24962;BME280;12992;50.884;13.668;2022-12-26T00:59:01;96949.81;;;11.17;100.00
24962;BME280;12992;50.884;13.668;2022-12-26T01:01:26;96962.91;;;11.25;100.00
24962;BME280;12992;50.884;13.668;2022-12-26T01:03:56;96960.72;;;11.27;100.00
24962;BME280;12992;50.884;13.668;2022-12-26T01:06:22;96958.00;;;11.27;100.00
24962;BME280;12992;50.884;13.668;2022-12-26T01:08:47;96957.47;;;11.35;100.00
24962;BME280;12992;50.884;13.668;2022-12-26T01:11:14;96955.28;;;11.37;100.00
24962;BME280;12992;50.884;13.668;2022-12-26T01:13:40;96960.22;;;11.40;100.00
24962;BME280;12992;50.884;13.668;2022-12-26T01:16:06;96956.13;;;11.38;100.00
24962;BME280;12992;50.884;13.668;2022-12-26T01:18:33;96955.59;;;11.41;100.00
24962;BME280;12992;50.884;13.668;2022-12-26T01:21:01;96968.94;;;11.42;100.00
24962;BME280;12992;50.884;13.668;2022-12-26T01:23:27;96968.13;;;11.47;100.00
24962;BME280;12992;50.884;13.668;2022-12-26T01:25:52;96967.84;;;11.48;100.00
24962;BME280;12992;50.884;13.668;2022-12-26T01:28:18;96958.59;;;11.49;100.00
24962;BME280;12992;50.884;13.668;2022-12-26T01:30:43;96954.78;;;11.50;100.00
24962;BME280;12992;50.884;13.668;2022-12-26T01:33:08;96958.06;;;11.52;100.00
24962;BME280;12992;50.884;13.668;2022-12-26T01:35:34;96952.88;;;11.51;100.00
24962;BME280;12992;50.884;13.668;2022-12-26T01:38:00;96955.88;;;11.54;100.00
24962;BME280;12992;50.884;13.668;2022-12-26T01:40:26;96941.97;;;11.56;100.00
24962;BME280;12992;50.884;13.668;2022-12-26T01:42:51;96939.53;;;11.49;100.00
24962;BME280;12992;50.884;13.668;2022-12-26T01:45:21;96940.88;;;11.52;100.00
24962;BME280;12992;50.884;13.668;2022-12-26T01:50:25;96934.63;;;11.51;100.00
24962;BME280;12992;50.884;13.668;2022-12-26T01:52:52;96930.22;;;11.45;100.00
24962;BME280;12992;50.884;13.668;2022-12-26T01:55:21;96916.03;;;11.48;100.00
24962;BME280;12992;50.884;13.668;2022-12-26T01:57:52;96910.06;;;11.46;100.00
24962;BME280;12992;50.884;13.668;2022-12-26T02:00:19;96912.25;;;11.49;99.50
24962;BME280;12992;50.884;13.668;2022-12-26T02:02:44;96904.34;;;11.43;99.88
24962;BME280;12992;50.884;13.668;2022-12-26T02:05:30;96910.06;;;11.41;99.55
24962;BME280;12992;50.884;13.668;2022-12-26T02:08:00;96899.13;;;11.36;98.97
24962;BME280;12992;50.884;13.668;2022-12-26T02:10:32;96897.50;;;11.35;99.19
24962;BME280;12992;50.884;13.668;2022-12-26T02:13:00;96878.41;;;11.20;99.75
24962;BME280;12992;50.884;13.668;2022-12-26T02:15:26;96872.13;;;11.14;100.00
24962;BME280;12992;50.884;13.668;2022-12-26T02:17:51;96874.28;;;11.12;100.00
24962;BME280;12992;50.884;13.668;2022-12-26T02:20:28;96880.28;;;11.09;100.00
24962;BME280;12992;50.884;13.668;2022-12-26T02:23:06;96869.38;;;10.99;100.00
24962;BME280;12992;50.884;13.668;2022-12-26T02:26:06;96854.91;;;10.83;100.00
24962;BME280;12992;50.884;13.668;2022-12-26T02:29:11;96876.16;;;10.81;100.00
24962;BME280;12992;50.884;13.668;2022-12-26T02:31:57;96875.00;;;10.67;100.00
24962;BME280;12992;50.884;13.668;2022-12-26T02:34:48;96870.09;;;10.64;100.00
24962;BME280;12992;50.884;13.668;2022-12-26T02:41:02;96873.28;;;10.45;100.00
24962;BME280;12992;50.884;13.668;2022-12-26T02:43:41;96882.81;;;10.48;100.00
24962;BME280;12992;50.884;13.668;2022-12-26T02:46:24;96884.75;;;10.53;100.00
24962;BME280;12992;50.884;13.668;2022-12-26T02:49:28;96876.03;;;10.50;100.00
24962;BME280;12992;50.884;13.668;2022-12-26T02:52:20;96863.50;;;10.44;100.00
24962;BME280;12992;50.884;13.668;2022-12-26T02:55:15;96882.81;;;10.48;100.00
24962;BME280;12992;50.884;13.668;2022-12-26T02:58:21;96881.75;;;10.49;100.00
24962;BME280;12992;50.884;13.668;2022-12-26T03:01:12;96890.75;;;10.60;100.00
24962;BME280;12992;50.884;13.668;2022-12-26T03:04:00;96910.22;;;10.89;100.00
24962;BME280;12992;50.884;13.668;2022-12-26T03:06:54;96911.59;;;11.01;100.00
24962;BME280;12992;50.884;13.668;2022-12-26T03:09:41;96918.72;;;11.18;100.00
24962;BME280;12992;50.884;13.668;2022-12-26T03:12:47;96892.56;;;11.22;99.24
24962;BME280;12992;50.884;13.668;2022-12-26T03:15:46;96884.13;;;11.13;99.49
24962;BME280;12992;50.884;13.668;2022-12-26T03:18:33;96872.66;;;11.06;99.46
24962;BME280;12992;50.884;13.668;2022-12-26T03:21:00;96875.38;;;11.11;99.50
24962;BME280;12992;50.884;13.668;2022-12-26T03:23:27;96882.19;;;11.09;99.76
24962;BME280;12992;50.884;13.668;2022-12-26T03:25:55;96877.31;;;11.05;100.00
24962;BME280;12992;50.884;13.668;2022-12-26T03:28:40;96882.19;;;11.09;100.00
24962;BME280;12992;50.884;13.668;2022-12-26T03:31:10;96878.38;;;11.04;100.00
24962;BME280;12992;50.884;13.668;2022-12-26T03:33:43;96868.56;;;11.03;100.00
24962;BME280;12992;50.884;13.668;2022-12-26T03:36:41;96877.84;;;11.07;100.00
24962;BME280;12992;50.884;13.668;2022-12-26T03:41:58;96883.88;;;11.25;100.00
24962;BME280;12992;50.884;13.668;2022-12-26T03:44:59;96901.59;;;11.38;98.93
24962;BME280;12992;50.884;13.668;2022-12-26T03:47:56;96896.69;;;11.45;98.93
24962;BME280;12992;50.884;13.668;2022-12-26T03:50:53;96892.88;;;11.56;98.28
24962;BME280;12992;50.884;13.668;2022-12-26T03:53:44;96896.97;;;11.63;97.93
24962;BME280;12992;50.884;13.668;2022-12-26T03:56:44;96905.97;;;11.69;97.21
24962;BME280;12992;50.884;13.668;2022-12-26T03:59:42;96907.34;;;11.77;96.92
24962;BME280;12992;50.884;13.668;2022-12-26T04:02:38;96911.72;;;11.78;96.93
24962;BME280;12992;50.884;13.668;2022-12-26T04:05:24;96919.09;;;11.82;96.73
24962;BME280;12992;50.884;13.668;2022-12-26T04:08:16;96925.38;;;11.88;96.19
24962;BME280;12992;50.884;13.668;2022-12-26T04:11:02;96919.09;;;11.82;95.98
24962;BME280;12992;50.884;13.668;2022-12-26T04:13:55;96917.69;;;11.75;96.74
24962;BME280;12992;50.884;13.668;2022-12-26T04:16:49;96914.16;;;11.69;97.26
24962;BME280;12992;50.884;13.668;2022-12-26T04:19:48;96931.63;;;11.68;97.24
24962;BME280;12992;50.884;13.668;2022-12-26T04:25:35;96935.69;;;11.66;97.61
24962;BME280;12992;50.884;13.668;2022-12-26T04:28:21;96946.59;;;11.66;98.25
24962;BME280;12992;50.884;13.668;2022-12-26T04:31:10;96952.06;;;11.66;98.26
24962;BME280;12992;50.884;13.668;2022-12-26T04:34:00;96958.38;;;11.76;97.18
24962;BME280;12992;50.884;13.668;2022-12-26T04:36:50;96964.38;;;11.83;96.61
24962;BME280;12992;50.884;13.668;2022-12-26T04:39:37;96964.63;;;11.77;96.91
24962;BME280;12992;50.884;13.668;2022-12-26T04:42:23;96940.09;;;11.67;97.92
24962;BME280;12992;50.884;13.668;2022-12-26T04:45:09;96939.50;;;11.64;97.98
24962;BME280;12992;50.884;13.668;2022-12-26T04:47:34;96930.50;;;11.54;98.87
24962;BME280;12992;50.884;13.668;2022-12-26T04:50:06;96934.63;;;11.61;98.41
24962;BME280;12992;50.884;13.668;2022-12-26T04:52:41;96936.81;;;11.59;98.75
24962;BME280;12992;50.884;13.668;2022-12-26T04:55:30;96926.41;;;11.46;99.71
24962;BME280;12992;50.884;13.668;2022-12-26T04:57:57;96942.50;;;11.43;100.00
24962;BME280;12992;50.884;13.668;2022-12-26T05:00:23;96941.97;;;11.41;100.00
24962;BME280;12992;50.884;13.668;2022-12-26T05:02:50;96941.13;;;11.45;100.00
24962;BME280;12992;50.884;13.668;2022-12-26T05:05:40;96935.13;;;11.38;100.00
24962;BME280;12992;50.884;13.668;2022-12-26T05:08:31;96941.13;;;11.45;100.00
24962;BME280;12992;50.884;13.668;2022-12-26T05:11:15;96949.06;;;11.52;100.00
24962;BME280;12992;50.884;13.668;2022-12-26T05:13:42;96943.34;;;11.58;100.00
24962;BME280;12992;50.884;13.668;2022-12-26T05:16:07;96933.25;;;11.49;100.00
24962;BME280;12992;50.884;13.668;2022-12-26T05:18:51;96937.31;;;11.46;100.00
24962;BME280;12992;50.884;13.668;2022-12-26T05:21:36;96946.88;;;11.54;100.00
24962;BME280;12992;50.884;13.668;2022-12-26T05:24:20;96923.13;;;11.44;100.00
24962;BME280;12992;50.884;13.668;2022-12-26T05:27:12;96915.50;;;11.36;100.00
24962;BME280;12992;50.884;13.668;2022-12-26T05:29:59;96916.84;;;11.28;100.00
24962;BME280;12992;50.884;13.668;2022-12-26T05:32:24;96915.22;;;11.32;100.00
24962;BME280;12992;50.884;13.668;2022-12-26T05:35:08;96913.59;;;11.31;100.00
24962;BME280;12992;50.884;13.668;2022-12-26T05:37:33;96926.94;;;11.28;100.00
24962;BME280;12992;50.884;13.668;2022-12-26T05:39:59;96923.13;;;11.29;100.00
24962;BME280;12992;50.884;13.668;2022-12-26T05:42:25;96937.03;;;11.32;100.00
24962;BME280;12992;50.884;13.668;2022-12-26T05:44:50;96923.66;;;11.26;100.00
24962;BME280;12992;50.884;13.668;2022-12-26T05:47:15;96922.81;;;11.20;100.00
24962;BME280;12992;50.884;13.668;2022-12-26T05:49:41;96929.66;;;11.23;100.00
24962;BME280;12992;50.884;13.668;2022-12-26T05:52:06;96915.47;;;11.26;100.00
24962;BME280;12992;50.884;13.668;2022-12-26T05:54:31;96926.13;;;11.32;100.00
24962;BME280;12992;50.884;13.668;2022-12-26T05:56:57;96921.50;;;11.33;100.00
24962;BME280;12992;50.884;13.668;2022-12-26T05:59:22;96918.22;;;11.31;100.00
24962;BME280;12992;50.884;13.668;2022-12-26T06:01:47;96898.03;;;11.17;100.00
24962;BME280;12992;50.884;13.668;2022-12-26T06:04:13;96908.91;;;11.22;100.00
24962;BME280;12992;50.884;13.668;2022-12-26T06:06:38;96923.13;;;11.24;100.00
24962;BME280;12992;50.884;13.668;2022-12-26T06:09:04;96913.84;;;11.25;100.00
24962;BME280;12992;50.884;13.668;2022-12-26T06:11:29;96901.00;;;11.20;100.00
24962;BME280;12992;50.884;13.668;2022-12-26T06:13:54;96892.28;;;11.08;100.00
24962;BME280;12992;50.884;13.668;2022-12-26T06:16:20;96887.91;;;11.02;100.00
24962;BME280;12992;50.884;13.668;2022-12-26T06:18:46;96897.72;;;11.08;100.00
24962;BME280;12992;50.884;13.668;2022-12-26T06:21:17;96890.09;;;11.05;100.00
24962;BME280;12992;50.884;13.668;2022-12-26T06:23:43;96892.00;;;11.10;100.00
24962;BME280;12992;50.884;13.668;2022-12-26T06:26:08;96887.09;;;11.12;100.00
24962;BME280;12992;50.884;13.668;2022-12-26T06:28:34;96877.00;;;11.12;100.00
24962;BME280;12992;50.884;13.668;2022-12-26T06:31:01;96880.56;;;11.13;100.00
24962;BME280;12992;50.884;13.668;2022-12-26T06:33:27;96873.75;;;11.05;100.00
24962;BME280;12992;50.884;13.668;2022-12-26T06:35:52;96877.00;;;11.02;100.00
24962;BME280;12992;50.884;13.668;2022-12-26T06:38:18;96881.13;;;11.04;100.00
24962;BME280;12992;50.884;13.668;2022-12-26T06:40:43;96878.09;;;11.11;100.00
24962;BME280;12992;50.884;13.668;2022-12-26T06:43:09;96867.47;;;11.10;100.00
24962;BME280;12992;50.884;13.668;2022-12-26T06:45:34;96888.50;;;11.14;100.00
24962;BME280;12992;50.884;13.668;2022-12-26T06:48:00;96906.44;;;11.10;100.00
24962;BME280;12992;50.884;13.668;2022-12-26T06:50:26;96910.53;;;11.13;100.00
24962;BME280;12992;50.884;13.668;2022-12-26T06:52:51;96914.91;;;11.09;100.00
24962;BME280;12992;50.884;13.668;2022-12-26T06:55:17;96912.44;;;10.97;100.00
24962;BME280;12992;50.884;13.668;2022-12-26T06:57:42;96925.75;;;10.93;100.00
24962;BME280;12992;50.884;13.668;2022-12-26T07:00:09;96926.03;;;10.87;100.00
24962;BME280;12992;50.884;13.668;2022-12-26T07:02:34;96931.72;;;10.80;100.00
24962;BME280;12992;50.884;13.668;2022-12-26T07:05:00;96928.69;;;10.76;100.00
24962;BME280;12992;50.884;13.668;2022-12-26T07:07:25;96948.06;;;10.80;100.00
24962;BME280;12992;50.884;13.668;2022-12-26T07:09:50;96941.22;;;10.77;100.00
24962;BME280;12992;50.884;13.668;2022-12-26T07:12:16;96934.94;;;10.77;100.00
24962;BME280;12992;50.884;13.668;2022-12-26T07:14:45;96928.16;;;10.80;100.00
24962;BME280;12992;50.884;13.668;2022-12-26T07:17:10;96914.75;;;10.68;100.00
24962;BME280;12992;50.884;13.668;2022-12-26T07:19:35;96940.97;;;10.79;100.00
24962;BME280;12992;50.884;13.668;2022-12-26T07:22:00;96927.34;;;10.84;100.00
24962;BME280;12992;50.884;13.668;2022-12-26T07:24:26;96936.66;;;10.88;100.00
24962;BME280;12992;50.884;13.668;2022-12-26T07:26:51;96944.25;;;10.86;100.00
24962;BME280;12992;50.884;13.668;2022-12-26T07:29:17;96944.53;;;10.90;100.00
24962;BME280;12992;50.884;13.668;2022-12-26T07:31:43;96929.53;;;10.82;100.00
24962;BME280;12992;50.884;13.668;2022-12-26T07:34:08;96926.00;;;10.82;100.00
24962;BME280;12992;50.884;13.668;2022-12-26T07:36:34;96927.59;;;10.77;100.00
24962;BME280;12992;50.884;13.668;2022-12-26T07:38:59;96938.75;;;10.76;100.00
24962;BME280;12992;50.884;13.668;2022-12-26T07:41:24;96950.78;;;10.85;100.00
24962;BME280;12992;50.884;13.668;2022-12-26T07:44:09;96947.50;;;10.78;100.00
24962;BME280;12992;50.884;13.668;2022-12-26T07:46:35;96940.09;;;10.68;100.00
24962;BME280;12992;50.884;13.668;2022-12-26T07:49:01;96934.38;;;10.65;100.00
24962;BME280;12992;50.884;13.668;2022-12-26T07:51:26;96932.19;;;10.67;100.00
24962;BME280;12992;50.884;13.668;2022-12-26T07:53:52;96942.59;;;10.80;100.00
24962;BME280;12992;50.884;13.668;2022-12-26T07:56:17;96952.69;;;10.80;100.00
24962;BME280;12992;50.884;13.668;2022-12-26T07:58:42;96960.59;;;10.86;100.00
24962;BME280;12992;50.884;13.668;2022-12-26T08:01:08;96969.34;;;10.88;100.00
24962;BME280;12992;50.884;13.668;2022-12-26T08:03:34;96970.97;;;10.89;100.00
24962;BME280;12992;50.884;13.668;2022-12-26T08:05:59;96992.81;;;10.99;100.00
24962;BME280;12992;50.884;13.668;2022-12-26T08:08:25;96982.47;;;11.12;100.00
24962;BME280;12992;50.884;13.668;2022-12-26T08:11:18;96988.00;;;11.27;100.00
24962;BME280;12992;50.884;13.668;2022-12-26T08:13:45;96997.84;;;11.43;100.00
24962;BME280;12992;50.884;13.668;2022-12-26T08:16:12;96982.88;;;11.51;100.00
24962;BME280;12992;50.884;13.668;2022-12-26T08:18:38;96982.03;;;11.45;100.00
24962;BME280;12992;50.884;13.668;2022-12-26T08:21:03;96983.16;;;11.54;100.00
24962;BME280;12992;50.884;13.668;2022-12-26T08:23:29;96991.88;;;11.61;100.00
24962;BME280;12992;50.884;13.668;2022-12-26T08:25:54;97003.06;;;11.65;100.00
24962;BME280;12992;50.884;13.668;2022-12-26T08:28:20;97015.91;;;11.75;98.97
24962;BME280;12992;50.884;13.668;2022-12-26T08:30:45;97012.34;;;11.74;99.03
24962;BME280;12992;50.884;13.668;2022-12-26T08:33:11;97010.44;;;11.75;98.95
24962;BME280;12992;50.884;13.668;2022-12-26T08:35:37;97017.00;;;11.79;99.52
24962;BME280;12992;50.884;13.668;2022-12-26T08:38:03;97023.88;;;11.86;99.50
24962;BME280;12992;50.884;13.668;2022-12-26T08:40:29;97008.31;;;11.92;98.13
24962;BME280;12992;50.884;13.668;2022-12-26T08:42:55;96988.94;;;11.88;98.98
24962;BME280;12992;50.884;13.668;2022-12-26T08:45:20;96988.09;;;11.78;99.33
24962;BME280;12992;50.884;13.668;2022-12-26T08:47:45;96991.91;;;11.77;99.68
24962;BME280;12992;50.884;13.668;2022-12-26T08:50:11;96999.00;;;11.73;99.44
24962;BME280;12992;50.884;13.668;2022-12-26T08:52:37;97009.91;;;11.78;98.82
24962;BME280;12992;50.884;13.668;2022-12-26T08:55:02;96990.81;;;11.78;98.86
24962;BME280;12992;50.884;13.668;2022-12-26T08:57:28;96987.88;;;11.84;98.37
24962;BME280;12992;50.884;13.668;2022-12-26T08:59:53;96998.78;;;11.89;99.06
24962;BME280;12992;50.884;13.668;2022-12-26T09:02:19;96973.41;;;11.89;97.45
24962;BME280;12992;50.884;13.668;2022-12-26T09:04:44;96971.22;;;11.86;97.70
24962;BME280;12992;50.884;13.668;2022-12-26T09:07:09;96988.69;;;11.95;97.02
24962;BME280;12992;50.884;13.668;2022-12-26T09:09:35;96998.22;;;11.98;97.33
24962;BME280;12992;50.884;13.668;2022-12-26T09:12:00;97007.81;;;12.10;96.32
24962;BME280;12992;50.884;13.668;2022-12-26T09:14:26;97006.16;;;12.19;95.92
24962;BME280;12992;50.884;13.668;2022-12-26T09:16:51;97025.25;;;12.35;95.96
24962;BME280;12992;50.884;13.668;2022-12-26T09:19:19;97018.16;;;12.34;94.44
24962;BME280;12992;50.884;13.668;2022-12-26T09:21:45;97013.50;;;12.34;95.06
24962;BME280;12992;50.884;13.668;2022-12-26T09:24:13;97003.94;;;12.27;94.94
24962;BME280;12992;50.884;13.668;2022-12-26T09:26:39;97009.97;;;12.29;94.89
24962;BME280;12992;50.884;13.668;2022-12-26T09:29:05;97014.06;;;12.26;95.31
24962;BME280;12992;50.884;13.668;2022-12-26T09:31:32;97023.59;;;12.34;95.03
24962;BME280;12992;50.884;13.668;2022-12-26T09:34:00;97028.53;;;12.37;93.69
24962;BME280;12992;50.884;13.668;2022-12-26T09:36:28;97027.16;;;12.39;94.06
24962;BME280;12992;50.884;13.668;2022-12-26T09:38:55;97031.78;;;12.49;94.24
24962;BME280;12992;50.884;13.668;2022-12-26T09:44:14;97052.50;;;12.70;93.27
24962;BME280;12992;50.884;13.668;2022-12-26T09:52:17;97011.59;;;12.40;93.93
24962;BME280;12992;50.884;13.668;2022-12-26T09:54:52;97027.16;;;12.50;93.79
24962;BME280;12992;50.884;13.668;2022-12-26T09:57:38;97026.59;;;12.53;93.61
24962;BME280;12992;50.884;13.668;2022-12-26T10:00:15;97026.31;;;12.59;93.51
24962;BME280;12992;50.884;13.668;2022-12-26T10:02:56;97027.41;;;12.63;92.73
24962;BME280;12992;50.884;13.668;2022-12-26T10:05:25;96993.00;;;12.57;91.99
24962;BME280;12992;50.884;13.668;2022-12-26T10:08:06;96993.28;;;12.51;93.51
24962;BME280;12992;50.884;13.668;2022-12-26T10:10:45;96987.25;;;12.54;92.80
24962;BME280;12992;50.884;13.668;2022-12-26T10:13:23;96982.06;;;12.57;93.21
24962;BME280;12992;50.884;13.668;2022-12-26T10:15:56;96985.88;;;12.61;92.01
24962;BME280;12992;50.884;13.668;2022-12-26T10:18:44;96975.78;;;12.52;92.36
24962;BME280;12992;50.884;13.668;2022-12-26T10:24:01;96984.00;;;12.36;93.16
24962;BME280;12992;50.884;13.668;2022-12-26T10:26:38;96973.66;;;12.28;94.43
24962;BME280;12992;50.884;13.668;2022-12-26T10:34:25;96977.75;;;12.21;95.03
24962;BME280;12992;50.884;13.668;2022-12-26T10:37:01;96965.19;;;12.14;96.82
24962;BME280;12992;50.884;13.668;2022-12-26T10:39:42;96972.56;;;12.09;97.72
24962;BME280;12992;50.884;13.668;2022-12-26T10:42:23;96971.22;;;12.06;100.00
24962;BME280;12992;50.884;13.668;2022-12-26T10:44:50;96963.03;;;11.96;100.00
24962;BME280;12992;50.884;13.668;2022-12-26T10:47:22;96977.22;;;11.98;100.00
24962;BME280;12992;50.884;13.668;2022-12-26T10:49:49;96967.94;;;11.89;100.00
24962;BME280;12992;50.884;13.668;2022-12-26T10:52:17;96953.19;;;11.90;100.00
24962;BME280;12992;50.884;13.668;2022-12-26T10:54:45;96957.03;;;11.94;100.00
24962;BME280;12992;50.884;13.668;2022-12-26T10:57:14;96970.13;;;11.97;100.00
24962;BME280;12992;50.884;13.668;2022-12-26T10:59:43;96971.47;;;12.00;100.00
24962;BME280;12992;50.884;13.668;2022-12-26T11:02:30;96985.13;;;12.05;100.00
24962;BME280;12992;50.884;13.668;2022-12-26T11:05:10;96984.03;;;12.06;100.00
24962;BME280;12992;50.884;13.668;2022-12-26T11:07:39;96969.84;;;12.04;100.00
24962;BME280;12992;50.884;13.668;2022-12-26T11:10:16;96975.03;;;11.95;100.00
24962;BME280;12992;50.884;13.668;2022-12-26T11:12:59;96977.47;;;11.91;100.00
24962;BME280;12992;50.884;13.668;2022-12-26T11:15:36;96967.94;;;11.94;100.00
24962;BME280;12992;50.884;13.668;2022-12-26T11:20:41;96972.03;;;11.91;100.00
24962;BME280;12992;50.884;13.668;2022-12-26T11:23:25;96959.19;;;11.82;100.00
24962;BME280;12992;50.884;13.668;2022-12-26T11:25:55;96961.63;;;11.78;100.00
24962;BME280;12992;50.884;13.668;2022-12-26T11:28:39;96957.56;;;11.81;100.00
24962;BME280;12992;50.884;13.668;2022-12-26T11:31:06;96972.84;;;11.82;100.00
24962;BME280;12992;50.884;13.668;2022-12-26T11:33:43;96973.41;;;11.84;100.00
24962;BME280;12992;50.884;13.668;2022-12-26T11:36:21;96983.22;;;11.90;100.00
24962;BME280;12992;50.884;13.668;2022-12-26T11:39:01;96985.41;;;11.88;100.00
24962;BME280;12992;50.884;13.668;2022-12-26T11:44:16;96957.81;;;11.79;100.00
24962;BME280;12992;50.884;13.668;2022-12-26T11:49:24;96948.56;;;11.80;100.00
24962;BME280;12992;50.884;13.668;2022-12-26T11:51:52;96949.38;;;11.81;100.00
24962;BME280;12992;50.884;13.668;2022-12-26T11:54:23;96942.81;;;11.77;100.00
24962;BME280;12992;50.884;13.668;2022-12-26T11:57:01;96923.16;;;11.75;100.00
24962;BME280;12992;50.884;13.668;2022-12-26T11:59:27;96928.59;;;11.75;100.00
24962;BME280;12992;50.884;13.668;2022-12-26T12:02:15;96925.34;;;11.73;100.00
24962;BME280;12992;50.884;13.668;2022-12-26T12:04:41;96896.44;;;11.61;100.00
24962;BME280;12992;50.884;13.668;2022-12-26T12:10:02;96924.25;;;11.58;100.00
24962;BME280;12992;50.884;13.668;2022-12-26T12:12:43;96920.69;;;11.53;100.00
24962;BME280;12992;50.884;13.668;2022-12-26T12:15:22;96923.97;;;11.55;100.00
24962;BME280;12992;50.884;13.668;2022-12-26T12:18:01;96925.59;;;11.56;100.00
24962;BME280;12992;50.884;13.668;2022-12-26T12:23:32;96910.06;;;11.46;100.00
24962;BME280;12992;50.884;13.668;2022-12-26T12:26:08;96922.59;;;11.47;100.00
24962;BME280;12992;50.884;13.668;2022-12-26T12:29:04;96928.59;;;11.44;100.00
24962;BME280;12992;50.884;13.668;2022-12-26T12:31:58;96910.34;;;11.40;100.00
24962;BME280;12992;50.884;13.668;2022-12-26T12:34:55;96918.75;;;11.38;100.00
24962;BME280;12992;50.884;13.668;2022-12-26T12:37:56;96915.78;;;11.34;100.00
24962;BME280;12992;50.884;13.668;2022-12-26T12:43:52;96891.50;;;11.28;100.00
24962;BME280;12992;50.884;13.668;2022-12-26T12:46:37;96916.03;;;11.28;100.00
24962;BME280;12992;50.884;13.668;2022-12-26T12:49:26;96916.03;;;11.33;100.00
24962;BME280;12992;50.884;13.668;2022-12-26T12:52:17;96901.88;;;11.31;100.00
24962;BME280;12992;50.884;13.668;2022-12-26T13:00:13;96921.19;;;11.29;100.00
24962;BME280;12992;50.884;13.668;2022-12-26T13:02:42;96924.19;;;11.28;100.00
24962;BME280;12992;50.884;13.668;2022-12-26T13:05:18;96923.09;;;11.19;100.00
24962;BME280;12992;50.884;13.668;2022-12-26T13:07:51;96922.56;;;11.17;100.00
24962;BME280;12992;50.884;13.668;2022-12-26T13:10:22;96929.63;;;11.18;100.00
24962;BME280;12992;50.884;13.668;2022-12-26T13:12:50;96943.25;;;11.18;100.00
24962;BME280;12992;50.884;13.668;2022-12-26T13:15:26;96938.91;;;11.17;100.00
24962;BME280;12992;50.884;13.668;2022-12-26T13:18:03;96937.78;;;11.13;100.00
24962;BME280;12992;50.884;13.668;2022-12-26T13:20:47;96938.34;;;11.04;100.00
24962;BME280;12992;50.884;13.668;2022-12-26T13:28:38;96958.09;;;10.69;100.00
24962;BME280;12992;50.884;13.668;2022-12-26T13:31:09;96941.31;;;10.35;100.00
24962;BME280;12992;50.884;13.668;2022-12-26T13:33:34;96972.19;;;10.19;100.00
24962;BME280;12992;50.884;13.668;2022-12-26T13:36:04;96975.81;;;9.98;100.00
24962;BME280;12992;50.884;13.668;2022-12-26T13:41:19;96980.16;;;9.93;100.00
24962;BME280;12992;50.884;13.668;2022-12-26T13:44:06;96990.44;;;9.86;100.00
24962;BME280;12992;50.884;13.668;2022-12-26T13:52:37;96999.72;;;9.90;100.00
24962;BME280;12992;50.884;13.668;2022-12-26T13:57:27;97007.00;;;9.85;100.00
24962;BME280;12992;50.884;13.668;2022-12-26T14:00:05;97001.00;;;9.83;100.00
24962;BME280;12992;50.884;13.668;2022-12-26T14:08:42;96993.41;;;9.85;100.00
24962;BME280;12992;50.884;13.668;2022-12-26T14:17:25;97006.94;;;9.80;100.00
24962;BME280;12992;50.884;13.668;2022-12-26T14:20:40;96996.34;;;9.78;100.00
24962;BME280;12992;50.884;13.668;2022-12-26T14:23:10;96997.41;;;9.77;100.00
24962;BME280;12992;50.884;13.668;2022-12-26T14:33:35;96988.63;;;9.65;100.00
24962;BME280;12992;50.884;13.668;2022-12-26T14:39:34;96982.50;;;9.53;100.00
24962;BME280;12992;50.884;13.668;2022-12-26T14:58:43;97006.59;;;9.44;100.00
24962;BME280;12992;50.884;13.668;2022-12-26T15:15:33;97017.53;;;9.22;100.00